sensor_id;sensor_type;location;lat;lon;timestamp;pressure;altitude;pressure_sealevel;temperature;humidity
60583;BME280;46415;47.536;19.066;2023-03-21T00:02:49;100419.06;;;10.97;91.10
60583;BME280;46415;47.536;19.066;2023-03-21T00:05:52;100409.28;;;11.02;90.85
60583;BME280;46415;47.536;19.066;2023-03-21T00:08:55;100405.09;;;11.00;90.88
60583;BME280;46415;47.536;19.066;2023-03-21T00:11:58;100406.84;;;10.99;90.99
60583;BME280;46415;47.536;19.066;2023-03-21T00:15:07;100407.81;;;10.97;91.23
60583;BME280;46415;47.536;19.066;2023-03-21T00:18:10;100411.31;;;10.77;92.10
60583;BME280;46415;47.536;19.066;2023-03-21T00:21:15;100406.47;;;10.49;93.61
60583;BME280;46415;47.536;19.066;2023-03-21T00:24:39;100407.31;;;10.30;95.06
60583;BME280;46415;47.536;19.066;2023-03-21T00:27:42;100402.66;;;10.17;96.39
60583;BME280;46415;47.536;19.066;2023-03-21T00:31:05;100402.22;;;10.06;97.37
60583;BME280;46415;47.536;19.066;2023-03-21T00:34:08;100394.78;;;9.97;98.20
60583;BME280;46415;47.536;19.066;2023-03-21T00:37:12;100398.03;;;9.82;99.60
60583;BME280;46415;47.536;19.066;2023-03-21T00:40:18;100390.50;;;9.76;100.00
60583;BME280;46415;47.536;19.066;2023-03-21T00:43:32;100386.31;;;9.72;100.00
60583;BME280;46415;47.536;19.066;2023-03-21T00:46:35;100384.28;;;9.80;100.00
60583;BME280;46415;47.536;19.066;2023-03-21T00:49:53;100382.06;;;9.71;100.00
60583;BME280;46415;47.536;19.066;2023-03-21T00:52:56;100383.13;;;9.65;100.00
60583;BME280;46415;47.536;19.066;2023-03-21T00:55:59;100375.34;;;9.65;100.00
60583;BME280;46415;47.536;19.066;2023-03-21T00:59:02;100378.91;;;9.63;100.00
60583;BME280;46415;47.536;19.066;2023-03-21T01:02:05;100384.94;;;9.63;100.00
60583;BME280;46415;47.536;19.066;2023-03-21T01:05:16;100381.69;;;9.58;100.00
60583;BME280;46415;47.536;19.066;2023-03-21T01:08:41;100376.53;;;9.58;100.00
60583;BME280;46415;47.536;19.066;2023-03-21T01:11:59;100376.63;;;9.77;100.00
60583;BME280;46415;47.536;19.066;2023-03-21T01:15:02;100370.53;;;9.78;100.00
60583;BME280;46415;47.536;19.066;2023-03-21T01:18:05;100375.75;;;9.98;100.00
60583;BME280;46415;47.536;19.066;2023-03-21T01:21:13;100372.50;;;9.93;100.00
60583;BME280;46415;47.536;19.066;2023-03-21T01:24:15;100369.37;;;9.85;100.00
60583;BME280;46415;47.536;19.066;2023-03-21T01:27:19;100369.09;;;9.71;100.00
60583;BME280;46415;47.536;19.066;2023-03-21T01:30:22;100363.72;;;9.75;100.00
60583;BME280;46415;47.536;19.066;2023-03-21T01:33:26;100359.75;;;9.67;100.00
60583;BME280;46415;47.536;19.066;2023-03-21T01:36:29;100359.75;;;9.67;100.00
60583;BME280;46415;47.536;19.066;2023-03-21T01:39:34;100365.59;;;9.72;100.00
60583;BME280;46415;47.536;19.066;2023-03-21T01:42:38;100364.69;;;9.73;100.00
60583;BME280;46415;47.536;19.066;2023-03-21T01:49:32;100363.22;;;9.66;100.00
60583;BME280;46415;47.536;19.066;2023-03-21T01:52:38;100364.81;;;9.70;100.00
60583;BME280;46415;47.536;19.066;2023-03-21T01:55:44;100369.66;;;9.77;100.00
60583;BME280;46415;47.536;19.066;2023-03-21T01:58:53;100359.50;;;9.73;100.00
60583;BME280;46415;47.536;19.066;2023-03-21T02:01:59;100371.53;;;9.96;100.00
60583;BME280;46415;47.536;19.066;2023-03-21T02:05:09;100367.78;;;10.03;100.00
60583;BME280;46415;47.536;19.066;2023-03-21T02:08:12;100365.22;;;10.01;100.00
60583;BME280;46415;47.536;19.066;2023-03-21T02:11:16;100366.56;;;10.11;100.00
60583;BME280;46415;47.536;19.066;2023-03-21T02:14:20;100356.66;;;10.21;99.56
60583;BME280;46415;47.536;19.066;2023-03-21T02:17:49;100362.91;;;10.15;99.50
60583;BME280;46415;47.536;19.066;2023-03-21T02:24:40;100367.19;;;9.96;100.00
60583;BME280;46415;47.536;19.066;2023-03-21T02:28:09;100357.97;;;9.89;100.00
60583;BME280;46415;47.536;19.066;2023-03-21T02:31:29;100360.31;;;9.95;100.00
60583;BME280;46415;47.536;19.066;2023-03-21T02:41:47;100360.16;;;9.78;100.00
60583;BME280;46415;47.536;19.066;2023-03-21T02:45:09;100366.78;;;9.85;100.00
60583;BME280;46415;47.536;19.066;2023-03-21T02:48:34;100363.75;;;9.96;100.00
60583;BME280;46415;47.536;19.066;2023-03-21T02:51:55;100364.59;;;9.96;100.00
60583;BME280;46415;47.536;19.066;2023-03-21T02:55:11;100369.25;;;9.88;100.00
60583;BME280;46415;47.536;19.066;2023-03-21T02:58:20;100366.13;;;9.80;100.00
60583;BME280;46415;47.536;19.066;2023-03-21T03:01:25;100372.25;;;9.77;100.00
60583;BME280;46415;47.536;19.066;2023-03-21T03:04:28;100369.50;;;9.60;100.00
60583;BME280;46415;47.536;19.066;2023-03-21T03:07:44;100363.91;;;9.49;100.00
60583;BME280;46415;47.536;19.066;2023-03-21T03:24:25;100371.69;;;9.27;100.00
60583;BME280;46415;47.536;19.066;2023-03-21T03:27:34;100369.03;;;9.29;100.00
60583;BME280;46415;47.536;19.066;2023-03-21T03:30:39;100369.31;;;9.21;100.00
60583;BME280;46415;47.536;19.066;2023-03-21T03:34:04;100369.37;;;9.20;100.00
60583;BME280;46415;47.536;19.066;2023-03-21T03:37:13;100374.59;;;9.18;100.00
60583;BME280;46415;47.536;19.066;2023-03-21T03:40:30;100372.00;;;9.18;100.00
60583;BME280;46415;47.536;19.066;2023-03-21T03:43:44;100363.25;;;9.22;100.00
60583;BME280;46415;47.536;19.066;2023-03-21T03:47:09;100360.47;;;9.27;100.00
60583;BME280;46415;47.536;19.066;2023-03-21T03:50:33;100356.38;;;9.21;100.00
60583;BME280;46415;47.536;19.066;2023-03-21T03:53:55;100360.16;;;9.13;100.00
60583;BME280;46415;47.536;19.066;2023-03-21T03:57:00;100370.00;;;9.26;100.00
60583;BME280;46415;47.536;19.066;2023-03-21T04:00:03;100365.94;;;9.19;100.00
60583;BME280;46415;47.536;19.066;2023-03-21T04:03:17;100369.19;;;9.24;100.00
60583;BME280;46415;47.536;19.066;2023-03-21T04:06:21;100370.84;;;9.27;100.00
60583;BME280;46415;47.536;19.066;2023-03-21T04:09:25;100382.38;;;9.18;100.00
60583;BME280;46415;47.536;19.066;2023-03-21T04:12:45;100369.09;;;9.27;100.00
60583;BME280;46415;47.536;19.066;2023-03-21T04:15:48;100365.97;;;9.41;100.00
60583;BME280;46415;47.536;19.066;2023-03-21T04:18:52;100371.31;;;9.36;100.00
60583;BME280;46415;47.536;19.066;2023-03-21T04:21:55;100375.78;;;9.33;100.00
60583;BME280;46415;47.536;19.066;2023-03-21T04:24:58;100375.72;;;9.34;100.00
60583;BME280;46415;47.536;19.066;2023-03-21T04:28:03;100372.66;;;9.47;100.00
60583;BME280;46415;47.536;19.066;2023-03-21T04:31:07;100371.38;;;9.57;100.00
60583;BME280;46415;47.536;19.066;2023-03-21T04:34:27;100363.72;;;9.75;100.00
60583;BME280;46415;47.536;19.066;2023-03-21T04:37:30;100365.78;;;9.67;100.00
60583;BME280;46415;47.536;19.066;2023-03-21T04:40:35;100366.25;;;9.77;100.00
60583;BME280;46415;47.536;19.066;2023-03-21T04:43:38;100365.91;;;9.64;100.00
60583;BME280;46415;47.536;19.066;2023-03-21T04:46:41;100355.19;;;9.52;100.00
60583;BME280;46415;47.536;19.066;2023-03-21T04:49:45;100365.97;;;9.41;100.00
60583;BME280;46415;47.536;19.066;2023-03-21T04:52:51;100359.34;;;9.34;100.00
60583;BME280;46415;47.536;19.066;2023-03-21T04:55:54;100372.72;;;9.23;100.00
60583;BME280;46415;47.536;19.066;2023-03-21T04:59:01;100366.13;;;9.15;100.00
60583;BME280;46415;47.536;19.066;2023-03-21T05:02:05;100374.28;;;9.04;100.00
60583;BME280;46415;47.536;19.066;2023-03-21T05:05:08;100375.16;;;9.05;100.00
60583;BME280;46415;47.536;19.066;2023-03-21T05:08:13;100372.47;;;9.06;100.00
60583;BME280;46415;47.536;19.066;2023-03-21T05:11:16;100375.75;;;9.11;100.00
60583;BME280;46415;47.536;19.066;2023-03-21T05:14:22;100377.81;;;9.25;100.00
60583;BME280;46415;47.536;19.066;2023-03-21T05:17:25;100377.47;;;9.56;100.00
60583;BME280;46415;47.536;19.066;2023-03-21T05:20:30;100375.44;;;9.84;100.00
60583;BME280;46415;47.536;19.066;2023-03-21T05:23:33;100378.69;;;10.11;99.68
60583;BME280;46415;47.536;19.066;2023-03-21T05:26:41;100378.16;;;10.25;98.45
60583;BME280;46415;47.536;19.066;2023-03-21T05:29:46;100374.34;;;10.32;97.99
60583;BME280;46415;47.536;19.066;2023-03-21T05:32:50;100381.97;;;10.36;97.75
60583;BME280;46415;47.536;19.066;2023-03-21T05:35:53;100387.59;;;10.26;98.69
60583;BME280;46415;47.536;19.066;2023-03-21T05:38:58;100395.06;;;10.33;97.97
60583;BME280;46415;47.536;19.066;2023-03-21T05:42:01;100392.84;;;10.44;97.43
60583;BME280;46415;47.536;19.066;2023-03-21T05:45:05;100394.97;;;10.55;96.92
60583;BME280;46415;47.536;19.066;2023-03-21T05:48:08;100401.19;;;10.71;95.71
60583;BME280;46415;47.536;19.066;2023-03-21T05:51:15;100398.47;;;10.74;95.24
60583;BME280;46415;47.536;19.066;2023-03-21T05:54:20;100401.78;;;10.78;95.06
60583;BME280;46415;47.536;19.066;2023-03-21T05:57:23;100407.09;;;10.75;95.13
60583;BME280;46415;47.536;19.066;2023-03-21T06:00:28;100402.63;;;10.78;94.99
60583;BME280;46415;47.536;19.066;2023-03-21T06:03:34;100409.34;;;10.82;94.46
60583;BME280;46415;47.536;19.066;2023-03-21T06:06:37;100405.31;;;10.95;93.47
60583;BME280;46415;47.536;19.066;2023-03-21T06:09:40;100411.00;;;11.03;93.21
60583;BME280;46415;47.536;19.066;2023-03-21T06:12:43;100406.53;;;11.07;92.65
60583;BME280;46415;47.536;19.066;2023-03-21T06:15:50;100407.22;;;11.11;92.82
60583;BME280;46415;47.536;19.066;2023-03-21T06:18:54;100401.88;;;11.14;92.25
60583;BME280;46415;47.536;19.066;2023-03-21T06:21:57;100406.87;;;11.18;92.01
60583;BME280;46415;47.536;19.066;2023-03-21T06:25:00;100407.50;;;11.23;91.23
60583;BME280;46415;47.536;19.066;2023-03-21T06:28:04;100406.59;;;11.43;89.86
60583;BME280;46415;47.536;19.066;2023-03-21T06:31:09;100405.66;;;11.44;89.58
60583;BME280;46415;47.536;19.066;2023-03-21T06:34:13;100413.75;;;11.38;89.67
60583;BME280;46415;47.536;19.066;2023-03-21T06:37:16;100419.72;;;11.40;89.76
60583;BME280;46415;47.536;19.066;2023-03-21T06:40:20;100411.62;;;11.46;89.66
60583;BME280;46415;47.536;19.066;2023-03-21T06:43:23;100420.81;;;11.72;88.39
60583;BME280;46415;47.536;19.066;2023-03-21T06:46:27;100406.53;;;11.80;87.81
60583;BME280;46415;47.536;19.066;2023-03-21T06:49:30;100406.72;;;11.77;87.84
60583;BME280;46415;47.536;19.066;2023-03-21T06:52:35;100407.53;;;11.59;88.43
60583;BME280;46415;47.536;19.066;2023-03-21T06:55:37;100411.19;;;11.74;88.07
60583;BME280;46415;47.536;19.066;2023-03-21T06:58:42;100420.19;;;11.67;88.71
60583;BME280;46415;47.536;19.066;2023-03-21T07:01:45;100417.88;;;11.79;88.77
60583;BME280;46415;47.536;19.066;2023-03-21T07:04:48;100423.84;;;11.99;87.78
60583;BME280;46415;47.536;19.066;2023-03-21T07:07:51;100424.88;;;11.96;88.09
60583;BME280;46415;47.536;19.066;2023-03-21T07:10:55;100425.47;;;11.84;88.73
60583;BME280;46415;47.536;19.066;2023-03-21T07:13:59;100427.69;;;11.92;88.42
60583;BME280;46415;47.536;19.066;2023-03-21T07:17:03;100428.62;;;11.91;87.71
60583;BME280;46415;47.536;19.066;2023-03-21T07:20:06;100429.22;;;11.96;86.92
60583;BME280;46415;47.536;19.066;2023-03-21T07:23:14;100429.84;;;12.01;86.73
60583;BME280;46415;47.536;19.066;2023-03-21T07:26:17;100428.78;;;12.22;85.59
60583;BME280;46415;47.536;19.066;2023-03-21T07:29:20;100431.09;;;12.62;83.70
60583;BME280;46415;47.536;19.066;2023-03-21T07:32:24;100434.81;;;13.07;81.17
60583;BME280;46415;47.536;19.066;2023-03-21T07:35:31;100438.56;;;13.19;79.97
60583;BME280;46415;47.536;19.066;2023-03-21T07:38:34;100429.69;;;13.38;79.06
60583;BME280;46415;47.536;19.066;2023-03-21T07:41:37;100426.81;;;13.74;76.59
60583;BME280;46415;47.536;19.066;2023-03-21T07:44:44;100422.91;;;13.97;74.97
60583;BME280;46415;47.536;19.066;2023-03-21T07:47:47;100418.31;;;14.16;74.73
60583;BME280;46415;47.536;19.066;2023-03-21T07:50:50;100421.72;;;14.32;72.55
60583;BME280;46415;47.536;19.066;2023-03-21T07:53:53;100414.00;;;14.75;71.24
60583;BME280;46415;47.536;19.066;2023-03-21T07:56:56;100414.34;;;14.69;69.42
60583;BME280;46415;47.536;19.066;2023-03-21T07:59:59;100414.75;;;14.77;69.09
60583;BME280;46415;47.536;19.066;2023-03-21T08:03:02;100413.25;;;15.01;68.09
60583;BME280;46415;47.536;19.066;2023-03-21T08:06:05;100410.91;;;15.25;66.41
60583;BME280;46415;47.536;19.066;2023-03-21T08:09:08;100412.56;;;15.26;66.40
60583;BME280;46415;47.536;19.066;2023-03-21T08:12:11;100411.72;;;15.40;64.43
60583;BME280;46415;47.536;19.066;2023-03-21T08:15:14;100411.47;;;15.71;63.85
60583;BME280;46415;47.536;19.066;2023-03-21T08:18:17;100409.84;;;15.83;61.79
60583;BME280;46415;47.536;19.066;2023-03-21T08:21:19;100408.59;;;15.88;61.25
60583;BME280;46415;47.536;19.066;2023-03-21T08:24:22;100407.22;;;15.83;60.96
60583;BME280;46415;47.536;19.066;2023-03-21T08:27:25;100411.22;;;15.88;59.62
60583;BME280;46415;47.536;19.066;2023-03-21T08:30:28;100418.28;;;16.01;59.85
60583;BME280;46415;47.536;19.066;2023-03-21T08:33:31;100412.44;;;16.10;60.84
60583;BME280;46415;47.536;19.066;2023-03-21T08:36:35;100406.34;;;16.09;59.25
60583;BME280;46415;47.536;19.066;2023-03-21T08:39:38;100415.34;;;16.05;58.62
60583;BME280;46415;47.536;19.066;2023-03-21T08:42:42;100419.47;;;15.82;59.31
60583;BME280;46415;47.536;19.066;2023-03-21T08:45:45;100417.03;;;15.79;59.75
60583;BME280;46415;47.536;19.066;2023-03-21T08:48:48;100422.19;;;15.81;59.75
60583;BME280;46415;47.536;19.066;2023-03-21T08:51:54;100425.06;;;15.90;59.55
60583;BME280;46415;47.536;19.066;2023-03-21T08:54:58;100427.03;;;16.14;57.88
60583;BME280;46415;47.536;19.066;2023-03-21T08:58:00;100424.59;;;16.11;56.95
60583;BME280;46415;47.536;19.066;2023-03-21T09:01:04;100421.94;;;16.38;56.95
60583;BME280;46415;47.536;19.066;2023-03-21T09:04:08;100413.28;;;16.62;55.60
60583;BME280;46415;47.536;19.066;2023-03-21T09:07:12;100429.94;;;16.87;54.33
60583;BME280;46415;47.536;19.066;2023-03-21T09:10:18;100412.12;;;16.79;54.21
60583;BME280;46415;47.536;19.066;2023-03-21T09:13:23;100411.88;;;16.44;54.71
60583;BME280;46415;47.536;19.066;2023-03-21T09:16:26;100412.28;;;16.25;54.84
60583;BME280;46415;47.536;19.066;2023-03-21T09:19:30;100413.13;;;16.26;53.70
60583;BME280;46415;47.536;19.066;2023-03-21T09:22:33;100414.91;;;16.38;52.26
60583;BME280;46415;47.536;19.066;2023-03-21T09:25:36;100418.19;;;16.54;51.35
60583;BME280;46415;47.536;19.066;2023-03-21T09:28:40;100410.41;;;16.53;50.67
60583;BME280;46415;47.536;19.066;2023-03-21T09:31:44;100414.25;;;16.61;51.84
60583;BME280;46415;47.536;19.066;2023-03-21T09:34:48;100413.41;;;16.73;52.65
60583;BME280;46415;47.536;19.066;2023-03-21T09:37:53;100410.78;;;16.73;52.08
60583;BME280;46415;47.536;19.066;2023-03-21T09:44:24;100425.94;;;16.68;52.31
60583;BME280;46415;47.536;19.066;2023-03-21T09:47:36;100413.44;;;16.47;52.48
60583;BME280;46415;47.536;19.066;2023-03-21T09:50:47;100419.97;;;16.02;52.47
60583;BME280;46415;47.536;19.066;2023-03-21T09:53:51;100420.37;;;15.96;54.15
60583;BME280;46415;47.536;19.066;2023-03-21T09:57:03;100407.09;;;15.72;55.49
60583;BME280;46415;47.536;19.066;2023-03-21T10:00:20;100409.00;;;15.41;57.37
60583;BME280;46415;47.536;19.066;2023-03-21T10:03:32;100404.00;;;15.92;56.75
60583;BME280;46415;47.536;19.066;2023-03-21T10:06:39;100408.28;;;16.20;55.58
60583;BME280;46415;47.536;19.066;2023-03-21T10:09:46;100405.38;;;16.37;54.80
60583;BME280;46415;47.536;19.066;2023-03-21T10:12:52;100405.16;;;16.40;54.65
60583;BME280;46415;47.536;19.066;2023-03-21T10:15:57;100403.59;;;16.38;54.72
60583;BME280;46415;47.536;19.066;2023-03-21T10:19:10;100413.13;;;16.51;53.65
60583;BME280;46415;47.536;19.066;2023-03-21T10:22:14;100398.25;;;16.52;51.50
60583;BME280;46415;47.536;19.066;2023-03-21T10:25:24;100397.44;;;16.77;52.82
60583;BME280;46415;47.536;19.066;2023-03-21T10:28:31;100398.62;;;16.85;50.23
60583;BME280;46415;47.536;19.066;2023-03-21T10:31:53;100387.47;;;17.07;47.69
60583;BME280;46415;47.536;19.066;2023-03-21T10:34:57;100392.19;;;17.02;49.00
60583;BME280;46415;47.536;19.066;2023-03-21T10:38:02;100390.59;;;17.48;46.44
60583;BME280;46415;47.536;19.066;2023-03-21T10:41:05;100387.62;;;17.66;46.73
60583;BME280;46415;47.536;19.066;2023-03-21T10:44:13;100388.28;;;18.04;45.53
60583;BME280;46415;47.536;19.066;2023-03-21T10:47:41;100377.31;;;17.75;46.53
60583;BME280;46415;47.536;19.066;2023-03-21T10:50:46;100384.44;;;17.73;46.65
60583;BME280;46415;47.536;19.066;2023-03-21T10:53:54;100378.69;;;17.68;46.22
60583;BME280;46415;47.536;19.066;2023-03-21T10:57:06;100380.97;;;17.73;46.52
60583;BME280;46415;47.536;19.066;2023-03-21T11:00:18;100377.91;;;17.79;46.43
60583;BME280;46415;47.536;19.066;2023-03-21T11:03:26;100373.09;;;17.73;45.27
60583;BME280;46415;47.536;19.066;2023-03-21T11:06:37;100369.44;;;17.39;45.81
60583;BME280;46415;47.536;19.066;2023-03-21T11:09:53;100378.16;;;17.39;45.83
60583;BME280;46415;47.536;19.066;2023-03-21T11:13:01;100365.13;;;17.38;45.79
60583;BME280;46415;47.536;19.066;2023-03-21T11:16:21;100356.53;;;17.60;45.30
60583;BME280;46415;47.536;19.066;2023-03-21T11:19:29;100350.78;;;18.02;45.15
60583;BME280;46415;47.536;19.066;2023-03-21T11:22:41;100355.94;;;18.04;45.21
60583;BME280;46415;47.536;19.066;2023-03-21T11:25:48;100342.47;;;18.30;44.61
60583;BME280;46415;47.536;19.066;2023-03-21T11:28:52;100346.22;;;18.39;44.43
60583;BME280;46415;47.536;19.066;2023-03-21T11:32:24;100334.16;;;17.90;44.57
60583;BME280;46415;47.536;19.066;2023-03-21T11:35:36;100337.09;;;17.75;45.84
60583;BME280;46415;47.536;19.066;2023-03-21T11:38:40;100323.62;;;17.79;45.54
60583;BME280;46415;47.536;19.066;2023-03-21T11:41:46;100324.22;;;17.83;44.98
60583;BME280;46415;47.536;19.066;2023-03-21T11:45:15;100319.16;;;17.69;45.12
60583;BME280;46415;47.536;19.066;2023-03-21T11:48:18;100320.44;;;17.87;44.13
60583;BME280;46415;47.536;19.066;2023-03-21T11:54:58;100311.41;;;17.67;45.00
60583;BME280;46415;47.536;19.066;2023-03-21T12:01:30;100311.72;;;17.39;45.53
60583;BME280;46415;47.536;19.066;2023-03-21T12:04:45;100303.28;;;17.46;43.12
60583;BME280;46415;47.536;19.066;2023-03-21T12:11:16;100311.72;;;17.15;43.89
60583;BME280;46415;47.536;19.066;2023-03-21T12:21:09;100300.91;;;18.24;42.84
60583;BME280;46415;47.536;19.066;2023-03-21T12:24:21;100295.28;;;18.18;42.63
60583;BME280;46415;47.536;19.066;2023-03-21T12:27:32;100290.91;;;17.83;43.68
60583;BME280;46415;47.536;19.066;2023-03-21T12:34:09;100289.88;;;18.77;42.79
60583;BME280;46415;47.536;19.066;2023-03-21T12:43:57;100273.44;;;20.63;38.25
60583;BME280;46415;47.536;19.066;2023-03-21T12:47:06;100270.87;;;20.82;37.24
60583;BME280;46415;47.536;19.066;2023-03-21T12:50:18;100257.28;;;20.47;36.46
60583;BME280;46415;47.536;19.066;2023-03-21T12:57:09;100254.66;;;19.54;39.07
60583;BME280;46415;47.536;19.066;2023-03-21T13:00:19;100255.94;;;19.16;39.75
60583;BME280;46415;47.536;19.066;2023-03-21T13:03:28;100251.50;;;18.74;40.76
60583;BME280;46415;47.536;19.066;2023-03-21T13:06:42;100256.50;;;18.32;40.78
60583;BME280;46415;47.536;19.066;2023-03-21T13:09:48;100249.06;;;17.93;40.50
60583;BME280;46415;47.536;19.066;2023-03-21T13:19:28;100234.38;;;17.55;39.98
60583;BME280;46415;47.536;19.066;2023-03-21T13:22:34;100233.66;;;18.00;39.84
60583;BME280;46415;47.536;19.066;2023-03-21T13:25:43;100231.53;;;18.38;38.08
60583;BME280;46415;47.536;19.066;2023-03-21T13:28:47;100226.47;;;18.91;38.09
60583;BME280;46415;47.536;19.066;2023-03-21T13:31:52;100233.34;;;19.14;37.42
60583;BME280;46415;47.536;19.066;2023-03-21T13:35:01;100230.59;;;19.15;37.27
60583;BME280;46415;47.536;19.066;2023-03-21T13:38:13;100236.03;;;19.35;35.93
60583;BME280;46415;47.536;19.066;2023-03-21T13:41:24;100229.66;;;19.37;35.70
60583;BME280;46415;47.536;19.066;2023-03-21T13:44:42;100228.28;;;18.90;37.07
60583;BME280;46415;47.536;19.066;2023-03-21T13:47:59;100226.06;;;18.63;37.09
60583;BME280;46415;47.536;19.066;2023-03-21T13:51:05;100224.59;;;18.48;38.01
60583;BME280;46415;47.536;19.066;2023-03-21T14:00:38;100216.50;;;18.62;38.79
60583;BME280;46415;47.536;19.066;2023-03-21T14:03:43;100214.69;;;18.74;38.76
60583;BME280;46415;47.536;19.066;2023-03-21T14:07:16;100215.19;;;18.68;38.61
60583;BME280;46415;47.536;19.066;2023-03-21T14:10:33;100213.87;;;18.51;38.51
60583;BME280;46415;47.536;19.066;2023-03-21T14:13:40;100207.03;;;18.49;37.86
60583;BME280;46415;47.536;19.066;2023-03-21T14:16:53;100204.00;;;18.98;36.39
60583;BME280;46415;47.536;19.066;2023-03-21T14:23:15;100197.97;;;19.39;35.48
60583;BME280;46415;47.536;19.066;2023-03-21T14:26:19;100190.06;;;19.39;34.95
60583;BME280;46415;47.536;19.066;2023-03-21T14:29:25;100191.31;;;19.76;34.54
60583;BME280;46415;47.536;19.066;2023-03-21T14:32:34;100184.75;;;19.29;35.43
60583;BME280;46415;47.536;19.066;2023-03-21T14:35:39;100178.47;;;20.13;35.03
60583;BME280;46415;47.536;19.066;2023-03-21T14:38:53;100181.62;;;21.54;33.25
60583;BME280;46415;47.536;19.066;2023-03-21T14:42:26;100188.06;;;22.63;31.87
60583;BME280;46415;47.536;19.066;2023-03-21T14:45:29;100175.38;;;23.37;30.99
60583;BME280;46415;47.536;19.066;2023-03-21T14:48:33;100173.72;;;23.54;30.62
60583;BME280;46415;47.536;19.066;2023-03-21T14:51:36;100174.84;;;22.63;31.19
60583;BME280;46415;47.536;19.066;2023-03-21T14:54:41;100165.87;;;22.19;31.92
60583;BME280;46415;47.536;19.066;2023-03-21T14:57:45;100164.03;;;22.47;31.54
60583;BME280;46415;47.536;19.066;2023-03-21T15:00:49;100174.28;;;23.22;30.90
60583;BME280;46415;47.536;19.066;2023-03-21T15:03:52;100171.28;;;23.86;29.58
60583;BME280;46415;47.536;19.066;2023-03-21T15:07:00;100171.94;;;24.56;28.17
60583;BME280;46415;47.536;19.066;2023-03-21T15:10:13;100164.28;;;25.28;26.25
60583;BME280;46415;47.536;19.066;2023-03-21T15:13:19;100165.09;;;25.44;25.91
60583;BME280;46415;47.536;19.066;2023-03-21T15:16:24;100173.88;;;25.85;26.43
60583;BME280;46415;47.536;19.066;2023-03-21T15:19:30;100170.13;;;26.11;26.40
60583;BME280;46415;47.536;19.066;2023-03-21T15:22:38;100162.69;;;24.68;27.95
60583;BME280;46415;47.536;19.066;2023-03-21T15:25:43;100164.31;;;24.53;28.13
60583;BME280;46415;47.536;19.066;2023-03-21T15:28:49;100165.97;;;23.86;29.77
60583;BME280;46415;47.536;19.066;2023-03-21T15:31:52;100162.97;;;24.07;29.94
60583;BME280;46415;47.536;19.066;2023-03-21T15:35:07;100164.25;;;24.03;29.87
60583;BME280;46415;47.536;19.066;2023-03-21T15:38:29;100154.09;;;24.83;28.88
60583;BME280;46415;47.536;19.066;2023-03-21T15:41:33;100156.91;;;23.45;30.42
60583;BME280;46415;47.536;19.066;2023-03-21T15:44:36;100157.19;;;23.60;30.35
60583;BME280;46415;47.536;19.066;2023-03-21T15:47:47;100163.34;;;23.86;30.07
60583;BME280;46415;47.536;19.066;2023-03-21T15:51:03;100155.63;;;23.32;31.11
60583;BME280;46415;47.536;19.066;2023-03-21T15:54:16;100160.22;;;22.59;31.78
60583;BME280;46415;47.536;19.066;2023-03-21T15:57:23;100153.56;;;23.17;30.76
60583;BME280;46415;47.536;19.066;2023-03-21T16:00:36;100158.44;;;23.30;30.67
60583;BME280;46415;47.536;19.066;2023-03-21T16:03:43;100149.84;;;24.39;29.67
60583;BME280;46415;47.536;19.066;2023-03-21T16:07:11;100153.72;;;24.19;29.16
60583;BME280;46415;47.536;19.066;2023-03-21T16:10:30;100153.06;;;22.69;31.00
60583;BME280;46415;47.536;19.066;2023-03-21T16:13:32;100161.28;;;20.59;34.01
60583;BME280;46415;47.536;19.066;2023-03-21T16:16:36;100161.03;;;19.08;36.79
60583;BME280;46415;47.536;19.066;2023-03-21T16:19:39;100161.34;;;17.95;38.98
60583;BME280;46415;47.536;19.066;2023-03-21T16:22:45;100165.47;;;17.30;40.78
60583;BME280;46415;47.536;19.066;2023-03-21T16:25:48;100162.44;;;16.88;42.05
60583;BME280;46415;47.536;19.066;2023-03-21T16:28:57;100173.34;;;16.58;43.10
60583;BME280;46415;47.536;19.066;2023-03-21T16:32:00;100168.50;;;16.16;44.58
60583;BME280;46415;47.536;19.066;2023-03-21T16:35:08;100165.28;;;16.00;45.10
60583;BME280;46415;47.536;19.066;2023-03-21T16:38:11;100169.91;;;15.71;45.95
60583;BME280;46415;47.536;19.066;2023-03-21T16:41:15;100170.84;;;15.70;46.37
60583;BME280;46415;47.536;19.066;2023-03-21T16:44:19;100169.44;;;15.39;47.07
60583;BME280;46415;47.536;19.066;2023-03-21T16:47:22;100180.88;;;15.11;48.05
60583;BME280;46415;47.536;19.066;2023-03-21T16:50:29;100185.75;;;15.03;48.68
60583;BME280;46415;47.536;19.066;2023-03-21T16:53:33;100192.47;;;14.80;49.74
60583;BME280;46415;47.536;19.066;2023-03-21T16:57:01;100195.41;;;14.61;50.25
60583;BME280;46415;47.536;19.066;2023-03-21T17:00:03;100192.94;;;14.46;50.82
60583;BME280;46415;47.536;19.066;2023-03-21T17:03:14;100193.94;;;14.29;51.29
60583;BME280;46415;47.536;19.066;2023-03-21T17:06:22;100194.13;;;14.26;51.78
60583;BME280;46415;47.536;19.066;2023-03-21T17:09:25;100200.56;;;14.06;52.33
60583;BME280;46415;47.536;19.066;2023-03-21T17:12:29;100193.09;;;13.86;52.93
60583;BME280;46415;47.536;19.066;2023-03-21T17:15:32;100196.84;;;13.82;53.03
60583;BME280;46415;47.536;19.066;2023-03-21T17:18:35;100197.66;;;13.82;53.25
60583;BME280;46415;47.536;19.066;2023-03-21T17:21:38;100205.75;;;13.78;53.51
60583;BME280;46415;47.536;19.066;2023-03-21T17:24:41;100208.00;;;13.70;53.60
60583;BME280;46415;47.536;19.066;2023-03-21T17:27:44;100214.06;;;13.70;53.72